Time;durP1;ratioP1;P1;durP2;ratioP2;P2;SDS_P1;SDS_P2;PMS_P1;PMS_P2;Temp;Humidity;BMP_temperature;BMP_pressure;BME280_temperature;BME280_humidity;BME280_pressure;Samples;Min_cycle;Max_cycle;Signal;HPM_P1;HPM_P2
2022/03/20 00:01:02;;;;;;;16.80;15.20;;;21.60;60.80;;;;;;6133186;28;89002;-67
2022/03/20 00:04:04;;;;;;;17.08;15.38;;;21.50;60.60;;;;;;6120702;28;89106;-66
2022/03/20 00:07:11;;;;;;;17.17;15.50;;;21.50;60.60;;;;;;6115912;28;87957;-67
2022/03/20 00:10:14;;;;;;;16.48;14.88;;;21.50;60.70;;;;;;6130354;28;88358;-66
2022/03/20 00:13:19;;;;;;;16.63;15.02;;;21.50;60.80;;;;;;6120490;28;89039;-66
2022/03/20 00:16:23;;;;;;;16.58;14.98;;;21.50;61.00;;;;;;6126034;28;89598;-66
2022/03/20 00:19:26;;;;;;;16.17;14.57;;;21.50;61.00;;;;;;6122442;28;90108;-66
2022/03/20 00:22:28;;;;;;;16.00;14.48;;;21.50;61.00;;;;;;6133642;28;89096;-67
2022/03/20 00:25:30;;;;;;;17.35;15.65;;;21.50;61.00;;;;;;6134213;28;89344;-67
2022/03/20 00:31:53;;;;;;;16.48;14.88;;;21.50;61.00;;;;;;6133779;28;87946;-67
2022/03/20 00:34:59;;;;;;;16.83;15.13;;;21.50;61.00;;;;;;6133224;28;89038;-67
2022/03/20 00:38:01;;;;;;;16.55;14.85;;;21.50;60.90;;;;;;6133434;28;89238;-67
2022/03/20 00:41:22;;;;;;;17.45;15.75;;;21.50;61.80;;;;;;6133292;28;87558;-67
2022/03/20 00:44:24;;;;;;;17.08;15.48;;;21.40;60.90;;;;;;6133171;28;88998;-67
2022/03/20 00:47:27;;;;;;;16.17;14.57;;;21.40;60.80;;;;;;6133165;28;89073;-66
2022/03/20 00:50:30;;;;;;;16.13;14.52;;;21.40;61.00;;;;;;6132567;28;90018;-67
2022/03/20 00:53:32;;;;;;;16.45;14.85;;;21.40;60.80;;;;;;6133509;28;89381;-67
2022/03/20 00:56:34;;;;;;;17.05;15.38;;;21.40;60.80;;;;;;6131455;28;89082;-67
2022/03/20 00:59:36;;;;;;;17.17;15.38;;;21.40;61.10;;;;;;6131231;28;89446;-67
2022/03/20 01:02:40;;;;;;;17.00;15.30;;;21.40;61.00;;;;;;6134534;28;89105;-66
2022/03/20 01:05:42;;;;;;;16.08;14.48;;;21.40;61.10;;;;;;6131343;28;89052;-66
2022/03/20 01:08:45;;;;;;;15.75;14.25;;;21.30;61.00;;;;;;6116595;28;89067;-66
2022/03/20 01:11:47;;;;;;;16.58;14.98;;;21.30;60.90;;;;;;6130998;28;88362;-67
2022/03/20 01:14:49;;;;;;;16.90;15.25;;;21.30;61.10;;;;;;6112319;28;89017;-66
2022/03/20 01:17:52;;;;;;;16.70;15.00;;;21.30;61.10;;;;;;6133624;28;89129;-66
2022/03/20 01:20:55;;;;;;;16.50;14.90;;;21.30;61.20;;;;;;6132504;28;90318;-67
2022/03/20 01:23:57;;;;;;;16.05;14.52;;;21.30;62.20;;;;;;6131188;28;89474;-66
2022/03/20 01:26:59;;;;;;;16.23;14.68;;;21.30;61.40;;;;;;6129492;28;90279;-67
2022/03/20 01:33:22;;;;;;;16.33;14.73;;;21.30;61.20;;;;;;6131777;28;87108;-66
2022/03/20 01:36:24;;;;;;;15.35;13.85;;;21.30;61.20;;;;;;6135455;28;89090;-66
2022/03/20 01:39:26;;;;;;;15.95;14.40;;;21.30;61.30;;;;;;6137101;28;89161;-67
2022/03/20 01:42:28;;;;;;;15.52;14.10;;;21.30;61.30;;;;;;6135836;28;88750;-66
2022/03/20 01:45:30;;;;;;;15.35;13.93;;;21.30;61.30;;;;;;6136721;28;89102;-66
2022/03/20 01:48:34;;;;;;;15.65;14.15;;;21.30;61.40;;;;;;6136852;28;89441;-66
2022/03/20 01:54:56;;;;;;;15.38;13.88;;;21.20;61.30;;;;;;6128625;28;87674;-66
2022/03/20 01:57:58;;;;;;;16.00;14.50;;;21.20;61.40;;;;;;6134602;28;89404;-66
2022/03/20 02:01:00;;;;;;;14.98;13.57;;;21.20;61.40;;;;;;6126100;28;89101;-66
2022/03/20 02:04:04;;;;;;;14.93;13.43;;;21.30;61.60;;;;;;6137540;28;88083;-66
2022/03/20 02:07:07;;;;;;;14.77;13.38;;;21.20;61.40;;;;;;6135830;28;91805;-67
2022/03/20 02:10:10;;;;;;;15.43;13.93;;;21.20;61.50;;;;;;6136513;28;89032;-66
2022/03/20 02:13:12;;;;;;;14.82;13.43;;;21.20;61.50;;;;;;6135136;28;88381;-66
2022/03/20 02:16:15;;;;;;;14.90;13.50;;;21.20;61.50;;;;;;6133024;28;88203;-66
2022/03/20 02:19:19;;;;;;;15.88;14.38;;;21.20;61.60;;;;;;6124897;28;89142;-67
2022/03/20 02:22:24;;;;;;;15.02;13.63;;;21.20;61.50;;;;;;6136392;28;90209;-67
2022/03/20 02:25:26;;;;;;;14.82;13.52;;;21.20;61.60;;;;;;6129084;28;89304;-67
2022/03/20 02:28:28;;;;;;;14.70;13.30;;;21.20;61.60;;;;;;6132278;28;88136;-66
2022/03/20 02:31:30;;;;;;;14.50;13.20;;;21.20;61.60;;;;;;6132063;28;89188;-67
2022/03/20 02:34:33;;;;;;;14.35;12.95;;;21.20;61.70;;;;;;6124253;28;89139;-67
2022/03/20 02:37:39;;;;;;;14.20;12.90;;;21.20;61.70;;;;;;6134221;28;89295;-66
2022/03/20 02:40:41;;;;;;;14.40;13.00;;;21.10;61.60;;;;;;6122352;28;88072;-67
2022/03/20 02:43:50;;;;;;;14.27;12.88;;;21.10;61.60;;;;;;6131243;28;88405;-66
2022/03/20 02:46:52;;;;;;;13.82;12.52;;;21.20;61.60;;;;;;6132408;28;90168;-66
2022/03/20 02:49:56;;;;;;;14.50;13.18;;;21.10;61.60;;;;;;6136362;28;87947;-67
2022/03/20 02:53:02;;;;;;;14.40;13.05;;;21.10;61.60;;;;;;6133838;28;90026;-66
2022/03/20 02:56:04;;;;;;;13.95;12.65;;;21.10;61.60;;;;;;6135179;28;89120;-66
2022/03/20 02:59:07;;;;;;;14.23;12.93;;;21.10;61.60;;;;;;6125908;28;88269;-67
2022/03/20 03:02:11;;;;;;;13.68;12.40;;;21.10;61.70;;;;;;6128088;28;88013;-66
2022/03/20 03:05:14;;;;;;;13.98;12.68;;;21.10;61.70;;;;;;6130145;28;88319;-67
2022/03/20 03:11:58;;;;;;;12.95;11.75;;;21.10;61.60;;;;;;6120441;28;87583;-66
2022/03/20 03:18:20;;;;;;;13.57;12.38;;;21.10;61.60;;;;;;6126748;28;87576;-67
2022/03/20 03:21:22;;;;;;;13.60;12.30;;;21.10;61.70;;;;;;6122370;28;89089;-67
2022/03/20 03:24:25;;;;;;;13.00;11.80;;;21.00;61.60;;;;;;6122492;28;90235;-67
2022/03/20 03:27:30;;;;;;;13.73;12.43;;;21.00;61.60;;;;;;6128067;28;89049;-67
2022/03/20 03:30:32;;;;;;;13.05;11.85;;;21.00;61.70;;;;;;6134832;28;89330;-66
2022/03/20 03:33:35;;;;;;;12.95;11.75;;;21.00;61.60;;;;;;6109761;28;89287;-67
2022/03/20 03:36:36;;;;;;;13.30;12.00;;;21.00;61.60;;;;;;6133793;28;89242;-67
2022/03/20 03:39:39;;;;;;;12.90;11.70;;;21.00;61.70;;;;;;6122913;28;89068;-67
2022/03/20 03:42:41;;;;;;;13.07;11.88;;;21.00;61.60;;;;;;6114923;28;89997;-67
2022/03/20 03:45:44;;;;;;;12.45;11.25;;;21.00;61.70;;;;;;6127117;28;88374;-67
2022/03/20 03:48:46;;;;;;;12.43;11.25;;;21.00;61.60;;;;;;6121889;28;89190;-67
2022/03/20 03:51:48;;;;;;;12.55;11.45;;;21.00;61.60;;;;;;6131323;28;89094;-67
2022/03/20 03:54:51;;;;;;;12.15;11.00;;;21.00;61.50;;;;;;6119829;28;90466;-67
2022/03/20 03:57:53;;;;;;;12.52;11.40;;;21.00;61.50;;;;;;6125308;28;89105;-66
2022/03/20 04:00:56;;;;;;;13.05;11.77;;;21.00;61.50;;;;;;6115153;28;87973;-66
2022/03/20 04:03:58;;;;;;;11.88;10.77;;;21.00;61.40;;;;;;6133990;28;89139;-66
2022/03/20 04:07:00;;;;;;;12.13;11.02;;;21.00;61.40;;;;;;6133825;28;88291;-67
2022/03/20 04:10:05;;;;;;;12.07;10.98;;;21.00;61.40;;;;;;6129835;28;89394;-66
2022/03/20 04:13:08;;;;;;;12.23;11.02;;;21.00;61.30;;;;;;6128302;28;89080;-67
2022/03/20 04:16:10;;;;;;;12.52;11.32;;;20.90;61.20;;;;;;6125138;28;88854;-66
2022/03/20 04:19:12;;;;;;;12.48;11.27;;;21.00;60.90;;;;;;6133430;28;89055;-67
2022/03/20 04:22:15;;;;;;;12.32;11.23;;;21.00;60.90;;;;;;6133622;28;89371;-67
2022/03/20 04:25:18;;;;;;;12.52;11.32;;;21.00;60.90;;;;;;6131373;28;89994;-66
2022/03/20 04:28:21;;;;;;;12.27;11.18;;;21.00;60.80;;;;;;6134551;28;89538;-66
2022/03/20 04:31:23;;;;;;;13.57;12.25;;;21.00;60.80;;;;;;6134091;28;89041;-67
2022/03/20 04:34:26;;;;;;;13.65;12.35;;;21.00;61.80;;;;;;6123871;28;88132;-67
2022/03/20 04:37:28;;;;;;;13.13;11.93;;;21.00;60.80;;;;;;6128834;28;89112;-66
2022/03/20 04:40:31;;;;;;;13.15;11.88;;;21.00;60.70;;;;;;6133605;28;90010;-66
2022/03/20 04:43:34;;;;;;;13.23;11.90;;;21.00;60.70;;;;;;6132266;28;88155;-66
2022/03/20 04:46:36;;;;;;;14.10;12.80;;;21.10;60.80;;;;;;6133222;28;88335;-66
2022/03/20 04:59:38;;;;;;;14.30;12.93;;;21.20;60.50;;;;;;6119355;28;87263;-66
2022/03/20 05:02:40;;;;;;;14.00;12.70;;;21.20;60.40;;;;;;6118554;28;89419;-66
2022/03/20 05:05:42;;;;;;;13.63;12.40;;;21.20;60.30;;;;;;6133632;28;89124;-66
2022/03/20 05:08:44;;;;;;;14.70;13.38;;;21.20;60.30;;;;;;6126619;28;89669;-66
2022/03/20 05:15:07;;;;;;;14.25;12.93;;;21.30;60.40;;;;;;6131146;28;87369;-66
2022/03/20 05:18:09;;;;;;;14.32;12.93;;;21.30;60.40;;;;;;6130902;28;88339;-66
2022/03/20 05:21:11;;;;;;;14.38;12.98;;;21.30;60.30;;;;;;6133301;28;88996;-67
2022/03/20 05:24:14;;;;;;;14.65;13.25;;;21.30;60.30;;;;;;6131564;28;89262;-66
2022/03/20 05:27:17;;;;;;;14.50;13.20;;;21.30;60.20;;;;;;6129942;28;90488;-67
2022/03/20 05:30:19;;;;;;;14.27;12.98;;;21.30;60.20;;;;;;6132518;28;89143;-66
2022/03/20 05:33:22;;;;;;;14.27;12.98;;;21.40;60.30;;;;;;6130729;28;89557;-67
2022/03/20 05:36:28;;;;;;;13.95;12.65;;;21.40;60.20;;;;;;6132429;28;87878;-66
2022/03/20 05:39:31;;;;;;;13.35;12.15;;;21.40;60.10;;;;;;6132615;28;88888;-66
2022/03/20 05:42:35;;;;;;;14.00;12.70;;;21.40;60.10;;;;;;6130610;28;89170;-66
2022/03/20 05:45:39;;;;;;;13.95;12.68;;;21.40;60.10;;;;;;6131032;28;89105;-66
2022/03/20 05:48:41;;;;;;;13.45;12.15;;;21.40;60.00;;;;;;6119530;28;88289;-66
2022/03/20 05:51:45;;;;;;;13.20;12.00;;;21.40;60.00;;;;;;6128152;28;88971;-66
2022/03/20 05:54:46;;;;;;;13.70;12.45;;;21.40;60.00;;;;;;6121992;28;89131;-67
2022/03/20 05:58:04;;;;;;;13.88;12.57;;;21.50;60.00;;;;;;6130639;28;90006;-67
2022/03/20 06:01:06;;;;;;;14.35;13.00;;;21.40;60.00;;;;;;6107997;28;89393;-66
2022/03/20 06:04:08;;;;;;;13.85;12.55;;;21.50;60.00;;;;;;6131439;28;89048;-66
2022/03/20 06:07:10;;;;;;;13.77;12.48;;;21.50;60.00;;;;;;6132988;28;89081;-66
2022/03/20 06:10:14;;;;;;;13.40;12.10;;;21.50;59.90;;;;;;6123182;28;88001;-66
2022/03/20 06:13:17;;;;;;;13.25;12.00;;;21.50;59.90;;;;;;6129961;28;89142;-66
2022/03/20 06:16:20;;;;;;;14.27;12.95;;;21.60;59.90;;;;;;6124069;28;89065;-66
2022/03/20 06:19:22;;;;;;;13.10;11.90;;;21.60;59.90;;;;;;6121270;28;88271;-66
2022/03/20 06:22:24;;;;;;;13.13;11.85;;;21.60;59.90;;;;;;6126271;28;89140;-66
2022/03/20 06:25:26;;;;;;;14.02;12.73;;;21.60;59.80;;;;;;6130825;28;89070;-67
2022/03/20 06:28:29;;;;;;;13.77;12.48;;;21.60;59.80;;;;;;6126606;28;90011;-66
2022/03/20 06:31:32;;;;;;;13.13;11.93;;;21.60;59.80;;;;;;6134839;28;88053;-67
2022/03/20 06:34:34;;;;;;;12.75;11.55;;;21.70;59.80;;;;;;6134753;28;87915;-67
2022/03/20 06:37:38;;;;;;;12.63;11.43;;;21.70;59.70;;;;;;6124378;28;88979;-66
2022/03/20 06:40:40;;;;;;;12.95;11.82;;;21.70;59.70;;;;;;6123349;28;88981;-66
2022/03/20 06:43:43;;;;;;;13.10;11.90;;;21.70;59.60;;;;;;6131676;28;89078;-66
2022/03/20 06:46:46;;;;;;;12.60;11.48;;;21.80;59.70;;;;;;6134008;28;89095;-66
2022/03/20 06:49:48;;;;;;;12.32;11.23;;;21.80;59.60;;;;;;6123174;28;88405;-67
2022/03/20 06:52:50;;;;;;;12.48;11.38;;;21.80;59.60;;;;;;6122105;28;89076;-66
2022/03/20 06:55:52;;;;;;;11.80;10.70;;;21.80;59.60;;;;;;6126037;28;89020;-66
2022/03/20 06:58:56;;;;;;;12.25;11.15;;;21.80;59.60;;;;;;6110984;28;90020;-67
2022/03/20 07:01:58;;;;;;;12.68;11.48;;;21.80;59.60;;;;;;6132661;28;89091;-66
2022/03/20 07:05:01;;;;;;;12.15;11.05;;;21.80;59.60;;;;;;6134738;28;89066;-66
2022/03/20 07:08:03;;;;;;;12.02;10.93;;;21.80;59.70;;;;;;6134477;28;89423;-66
2022/03/20 07:11:05;;;;;;;11.18;10.18;;;21.80;59.70;;;;;;6126749;28;87103;-66
2022/03/20 07:14:09;;;;;;;11.90;10.80;;;21.80;59.70;;;;;;6133245;28;89157;-67
2022/03/20 07:17:13;;;;;;;11.77;10.68;;;21.80;59.70;;;;;;6133061;28;89428;-66
2022/03/20 07:20:16;;;;;;;11.52;10.43;;;21.80;59.70;;;;;;6135204;28;88259;-67
2022/03/20 07:23:18;;;;;;;11.80;10.70;;;21.80;59.80;;;;;;6121739;28;89049;-66
2022/03/20 07:29:41;;;;;;;11.52;10.50;;;21.80;59.80;;;;;;6121081;28;89011;-66
2022/03/20 07:32:43;;;;;;;11.45;10.43;;;21.80;59.80;;;;;;6133857;28;89167;-67
2022/03/20 07:35:45;;;;;;;11.05;10.05;;;21.80;59.80;;;;;;6123407;28;89172;-66
2022/03/20 07:38:50;;;;;;;11.30;10.30;;;21.90;59.80;;;;;;6133701;28;89087;-66
2022/03/20 07:41:52;;;;;;;11.82;10.73;;;21.90;59.80;;;;;;6134016;28;87693;-67
2022/03/20 07:44:55;;;;;;;11.18;10.07;;;21.90;59.90;;;;;;6128100;28;88288;-66
2022/03/20 07:47:57;;;;;;;10.75;9.73;;;21.90;59.80;;;;;;6116500;28;89515;-66
2022/03/20 07:50:59;;;;;;;11.02;10.02;;;21.90;59.80;;;;;;6131751;28;88715;-66
2022/03/20 07:54:01;;;;;;;11.07;10.02;;;21.90;59.80;;;;;;6135062;28;87805;-66
2022/03/20 07:57:04;;;;;;;10.77;9.80;;;21.90;59.80;;;;;;6134391;28;89087;-66
2022/03/20 08:00:09;;;;;;;11.07;10.07;;;21.90;59.70;;;;;;6120160;28;90044;-66
2022/03/20 08:03:11;;;;;;;11.30;10.30;;;21.90;59.70;;;;;;6133345;28;89062;-66
2022/03/20 08:06:15;;;;;;;11.10;10.10;;;21.90;59.70;;;;;;6133851;28;88902;-66
2022/03/20 08:09:17;;;;;;;10.90;9.90;;;21.90;59.70;;;;;;6124066;28;89150;-66
2022/03/20 08:12:19;;;;;;;10.55;9.55;;;22.00;59.80;;;;;;6133651;28;89006;-66
2022/03/20 08:15:24;;;;;;;10.63;9.63;;;21.90;59.80;;;;;;6122846;28;89410;-66
2022/03/20 08:18:26;;;;;;;10.10;9.15;;;21.90;59.80;;;;;;6132912;28;92106;-66
2022/03/20 08:21:28;;;;;;;10.50;9.50;;;21.90;59.70;;;;;;6123885;28;88300;-67
2022/03/20 08:24:30;;;;;;;10.48;9.57;;;21.90;59.80;;;;;;6122670;28;88054;-66
2022/03/20 08:27:42;;;;;;;10.48;9.57;;;21.90;59.80;;;;;;6131376;28;87990;-66
2022/03/20 08:30:46;;;;;;;9.90;8.98;;;21.90;59.80;;;;;;6119753;28;90069;-66
2022/03/20 08:33:47;;;;;;;10.05;9.07;;;21.90;59.80;;;;;;6118862;28;89262;-66
2022/03/20 08:36:49;;;;;;;9.95;9.05;;;22.00;59.80;;;;;;6126733;28;89043;-66
2022/03/20 08:39:51;;;;;;;9.55;8.73;;;22.00;59.70;;;;;;6119031;28;89035;-66
2022/03/20 08:42:55;;;;;;;9.82;8.93;;;22.00;59.70;;;;;;6132745;28;89201;-66
2022/03/20 08:45:59;;;;;;;10.02;9.13;;;22.00;59.70;;;;;;6121462;28;87808;-66
2022/03/20 08:49:03;;;;;;;9.95;8.95;;;22.00;59.70;;;;;;6117558;28;89135;-66
2022/03/20 08:52:06;;;;;;;9.48;8.60;;;22.00;59.70;;;;;;6120168;28;88646;-66
2022/03/20 08:55:11;;;;;;;9.98;9.07;;;22.00;59.70;;;;;;6134842;28;89137;-66
2022/03/20 08:58:31;;;;;;;10.15;9.25;;;22.00;59.70;;;;;;6130243;28;87999;-66
2022/03/20 09:01:35;;;;;;;9.70;8.80;;;22.00;59.80;;;;;;6108492;28;91549;-66
2022/03/20 09:04:37;;;;;;;9.23;8.43;;;22.00;59.70;;;;;;6126394;28;88917;-67
2022/03/20 09:07:40;;;;;;;9.38;8.57;;;22.00;59.80;;;;;;6132229;28;89234;-67
2022/03/20 09:10:42;;;;;;;8.98;8.18;;;22.00;59.70;;;;;;6124855;28;89005;-66
2022/03/20 09:13:44;;;;;;;8.93;8.13;;;22.00;59.70;;;;;;6132531;28;89134;-66
2022/03/20 09:20:08;;;;;;;9.45;8.65;;;22.00;59.70;;;;;;6121371;28;87329;-67
2022/03/20 09:23:13;;;;;;;8.98;8.18;;;22.00;59.70;;;;;;6132399;28;88693;-67
2022/03/20 09:26:15;;;;;;;8.75;7.95;;;22.00;59.70;;;;;;6120064;28;88023;-67
2022/03/20 09:29:17;;;;;;;8.95;8.15;;;22.00;59.70;;;;;;6119429;28;89094;-66
2022/03/20 09:32:21;;;;;;;8.82;8.00;;;22.00;59.80;;;;;;6132019;28;90152;-66
2022/03/20 09:35:23;;;;;;;8.35;7.65;;;22.00;59.80;;;;;;6119233;28;89438;-66
2022/03/20 09:38:26;;;;;;;8.98;8.18;;;22.00;59.80;;;;;;6133860;28;89325;-66
2022/03/20 09:41:31;;;;;;;8.95;8.15;;;22.00;59.80;;;;;;6132369;28;89294;-66
2022/03/20 09:44:37;;;;;;;8.50;7.80;;;22.00;59.80;;;;;;6131634;28;89163;-66
2022/03/20 09:47:42;;;;;;;8.82;8.02;;;22.00;59.90;;;;;;6123325;28;89585;-66
2022/03/20 09:50:44;;;;;;;8.90;8.10;;;22.00;59.80;;;;;;6129007;28;89183;-66
2022/03/20 09:53:46;;;;;;;9.10;8.30;;;22.00;59.80;;;;;;6132165;28;88324;-66
2022/03/20 09:56:52;;;;;;;8.70;7.90;;;22.10;59.90;;;;;;6134284;28;89104;-66
2022/03/20 09:59:55;;;;;;;8.68;7.88;;;22.10;59.80;;;;;;6121609;28;89134;-66
2022/03/20 10:03:17;;;;;;;7.75;7.05;;;22.00;59.80;;;;;;6128464;28;89042;-66
2022/03/20 10:06:20;;;;;;;8.20;7.50;;;22.10;59.80;;;;;;6136483;28;89066;-66
2022/03/20 10:09:23;;;;;;;7.85;7.13;;;22.10;59.80;;;;;;6128053;28;89122;-66
2022/03/20 10:12:32;;;;;;;8.57;7.78;;;22.10;59.80;;;;;;6124619;28;89246;-66
2022/03/20 10:15:35;;;;;;;8.20;7.40;;;22.10;59.90;;;;;;6123923;28;89119;-66
2022/03/20 10:18:39;;;;;;;8.48;7.72;;;22.10;59.90;;;;;;6138061;28;89067;-66
2022/03/20 10:21:45;;;;;;;8.55;7.75;;;22.10;59.90;;;;;;6113520;28;89248;-67
2022/03/20 10:24:50;;;;;;;8.82;8.02;;;22.10;59.90;;;;;;6111708;28;88324;-66
2022/03/20 10:28:00;;;;;;;7.78;7.10;;;22.10;59.90;;;;;;6125054;28;89051;-66
2022/03/20 10:31:04;;;;;;;7.82;7.13;;;22.10;59.90;;;;;;6124392;28;89312;-66
2022/03/20 10:34:08;;;;;;;7.40;6.80;;;22.10;59.90;;;;;;6124714;28;89625;-66
2022/03/20 10:37:10;;;;;;;8.13;7.40;;;22.10;59.90;;;;;;6111486;28;89079;-66
2022/03/20 10:40:15;;;;;;;8.23;7.43;;;22.10;60.00;;;;;;6130361;28;89050;-66
2022/03/20 10:43:18;;;;;;;8.40;7.65;;;22.00;59.90;;;;;;6122902;28;89370;-66
2022/03/20 10:46:23;;;;;;;7.90;7.10;;;22.10;60.00;;;;;;6137653;28;87884;-66
2022/03/20 10:49:27;;;;;;;7.90;7.20;;;22.10;60.00;;;;;;6123969;28;89069;-66
2022/03/20 10:52:30;;;;;;;7.38;6.78;;;22.10;60.00;;;;;;6136374;28;88341;-66
2022/03/20 10:55:32;;;;;;;7.53;6.93;;;22.10;60.00;;;;;;6122792;28;88330;-66
2022/03/20 10:58:38;;;;;;;7.57;6.95;;;22.10;60.00;;;;;;6122789;28;89565;-66
2022/03/20 11:01:41;;;;;;;7.30;6.70;;;22.10;60.00;;;;;;6123919;28;89140;-66
2022/03/20 11:04:45;;;;;;;7.68;7.00;;;22.10;60.00;;;;;;6131933;28;89963;-66
2022/03/20 11:07:48;;;;;;;7.47;6.88;;;22.10;60.00;;;;;;6125768;28;89183;-66
2022/03/20 11:10:51;;;;;;;7.30;6.63;;;22.10;60.00;;;;;;6125348;28;88942;-66
2022/03/20 11:13:55;;;;;;;7.18;6.57;;;22.10;59.90;;;;;;6123225;28;87999;-66
2022/03/20 11:17:01;;;;;;;7.63;6.93;;;22.10;59.90;;;;;;6135024;28;89144;-66
2022/03/20 11:20:08;;;;;;;7.78;7.07;;;22.10;59.90;;;;;;6121341;28;89214;-66
2022/03/20 11:23:13;;;;;;;7.05;6.45;;;22.10;60.00;;;;;;6134530;28;87801;-66
2022/03/20 11:26:16;;;;;;;7.50;6.82;;;22.20;60.00;;;;;;6135780;28;88242;-66
2022/03/20 11:29:21;;;;;;;7.40;6.72;;;22.10;59.90;;;;;;6133677;28;89629;-66
2022/03/20 11:32:24;;;;;;;7.47;6.78;;;22.10;59.90;;;;;;6133002;28;89177;-66
2022/03/20 11:35:30;;;;;;;6.97;6.35;;;22.10;59.90;;;;;;6119364;28;90463;-66
2022/03/20 11:38:35;;;;;;;6.57;6.07;;;22.10;60.00;;;;;;6130462;28;87987;-66
2022/03/20 11:41:37;;;;;;;6.95;6.35;;;22.10;59.90;;;;;;6133685;28;89053;-66
2022/03/20 11:44:52;;;;;;;6.57;5.97;;;22.10;60.00;;;;;;6131412;28;89122;-66
2022/03/20 11:48:13;;;;;;;7.32;6.63;;;22.10;59.90;;;;;;6115462;28;89645;-66
2022/03/20 11:51:57;;;;;;;7.18;6.57;;;22.10;60.00;;;;;;6121824;28;89861;-66
2022/03/20 11:54:59;;;;;;;7.07;6.45;;;22.10;59.90;;;;;;6131084;28;88972;-66
2022/03/20 11:58:04;;;;;;;7.03;6.43;;;22.10;59.90;;;;;;6120583;28;88404;-66
2022/03/20 12:01:09;;;;;;;7.07;6.47;;;22.10;59.90;;;;;;6123810;28;89102;-66
2022/03/20 12:04:15;;;;;;;7.10;6.50;;;22.10;59.90;;;;;;6122842;28;89357;-66
2022/03/20 12:07:25;;;;;;;6.90;6.30;;;22.20;59.90;;;;;;6110499;28;90110;-66
2022/03/20 12:10:35;;;;;;;6.90;6.30;;;22.10;59.80;;;;;;6120839;28;88322;-66
2022/03/20 12:13:49;;;;;;;6.97;6.38;;;22.20;59.90;;;;;;6120794;28;88989;-66
2022/03/20 12:16:55;;;;;;;6.63;6.03;;;22.20;59.80;;;;;;6135149;28;89002;-65
2022/03/20 12:19:57;;;;;;;6.97;6.30;;;22.20;59.80;;;;;;6133936;28;87929;-66
2022/03/20 12:23:38;;;;;;;7.00;6.40;;;22.20;59.80;;;;;;6132647;28;88078;-66
2022/03/20 12:26:44;;;;;;;6.80;6.20;;;22.20;59.80;;;;;;6109133;28;88767;-66
2022/03/20 12:29:46;;;;;;;6.65;6.05;;;22.20;59.70;;;;;;6120974;28;88234;-65
2022/03/20 12:32:55;;;;;;;6.10;5.60;;;22.20;59.80;;;;;;6132926;28;89344;-67
2022/03/20 12:35:57;;;;;;;6.70;6.10;;;22.20;59.70;;;;;;6133362;28;88926;-66
2022/03/20 12:39:00;;;;;;;6.60;6.07;;;22.20;59.80;;;;;;6124709;28;89946;-66
2022/03/20 12:42:16;;;;;;;6.90;6.30;;;22.20;59.70;;;;;;6126995;28;89237;-66
2022/03/20 12:45:18;;;;;;;6.47;5.90;;;22.20;59.70;;;;;;6133436;28;89130;-66
2022/03/20 12:48:22;;;;;;;6.50;6.00;;;22.20;59.70;;;;;;6120395;28;89092;-66
2022/03/20 12:51:54;;;;;;;6.38;5.88;;;22.20;59.70;;;;;;6123090;28;87945;-65
2022/03/20 12:54:59;;;;;;;6.50;5.90;;;22.20;59.70;;;;;;6130364;28;90720;-66
2022/03/20 12:58:02;;;;;;;6.65;6.10;;;22.10;59.70;;;;;;6124484;28;89125;-66
2022/03/20 13:01:08;;;;;;;6.32;5.82;;;22.10;59.70;;;;;;6133173;28;88281;-66
2022/03/20 13:04:18;;;;;;;6.30;5.70;;;22.10;59.70;;;;;;6127829;28;88322;-66
2022/03/20 13:07:24;;;;;;;6.20;5.70;;;22.10;59.70;;;;;;6117385;28;89393;-66
2022/03/20 13:10:33;;;;;;;6.38;5.78;;;22.10;59.60;;;;;;6127106;28;90124;-66
2022/03/20 13:13:37;;;;;;;5.97;5.47;;;22.20;59.60;;;;;;6127363;28;89333;-66
2022/03/20 13:16:48;;;;;;;6.72;6.13;;;22.20;59.70;;;;;;6115962;28;89099;-66
2022/03/20 13:19:51;;;;;;;6.15;5.60;;;22.10;59.60;;;;;;6105084;28;88990;-66
2022/03/20 13:22:53;;;;;;;6.50;5.90;;;22.20;59.70;;;;;;6116921;28;91335;-66
2022/03/20 13:25:58;;;;;;;6.15;5.65;;;22.10;59.60;;;;;;6116615;28;89237;-66
2022/03/20 13:29:00;;;;;;;6.10;5.57;;;22.20;59.70;;;;;;6125319;28;89423;-66
2022/03/20 13:32:10;;;;;;;6.50;5.80;;;22.20;59.70;;;;;;6115847;28;88356;-66
2022/03/20 13:35:12;;;;;;;6.53;5.93;;;22.10;59.50;;;;;;6117964;28;89081;-66
2022/03/20 13:38:14;;;;;;;6.18;5.57;;;22.20;59.60;;;;;;6120864;28;89091;-66
2022/03/20 13:41:20;;;;;;;5.80;5.30;;;22.20;59.60;;;;;;6106296;28;89992;-66
2022/03/20 13:44:22;;;;;;;6.20;5.70;;;22.20;59.50;;;;;;6103606;28;89314;-66
2022/03/20 13:47:26;;;;;;;5.63;5.13;;;22.20;59.50;;;;;;6113445;28;89081;-66
2022/03/20 13:50:29;;;;;;;5.97;5.47;;;22.20;59.50;;;;;;6118296;28;88642;-66
2022/03/20 13:53:31;;;;;;;6.13;5.53;;;22.20;59.50;;;;;;6111021;28;89261;-64
2022/03/20 13:56:35;;;;;;;5.90;5.40;;;22.20;59.50;;;;;;6125834;28;87964;-66
2022/03/20 13:59:51;;;;;;;6.20;5.60;;;22.20;59.80;;;;;;6107520;28;89300;-67
2022/03/20 14:02:53;;;;;;;6.18;5.57;;;22.20;60.40;;;;;;6115993;28;88772;-66
2022/03/20 14:05:55;;;;;;;6.80;5.70;;;22.20;60.30;;;;;;6122439;28;87144;-65
2022/03/20 14:08:58;;;;;;;6.45;5.35;;;22.20;61.00;;;;;;6121461;28;89144;-65
2022/03/20 14:12:21;;;;;;;5.75;5.15;;;22.20;60.60;;;;;;6124885;28;90735;-65
2022/03/20 14:15:25;;;;;;;5.85;5.35;;;22.20;60.60;;;;;;6109410;28;89092;-66
2022/03/20 14:18:27;;;;;;;6.13;5.53;;;22.10;60.50;;;;;;6108301;28;89340;-66
2022/03/20 14:21:31;;;;;;;5.60;5.10;;;22.20;60.60;;;;;;6125929;28;89532;-66
2022/03/20 14:24:47;;;;;;;6.25;5.25;;;22.20;60.50;;;;;;6107910;28;89186;-66
2022/03/20 14:27:59;;;;;;;6.22;5.22;;;22.20;61.00;;;;;;6102928;28;88979;-66
2022/03/20 14:41:34;;;;;;;6.28;5.35;;;22.20;60.30;;;;;;6121678;28;87460;-66
2022/03/20 14:44:49;;;;;;;7.28;5.68;;;22.20;60.30;;;;;;6134517;28;90016;-66
2022/03/20 14:47:51;;;;;;;5.97;5.35;;;22.20;60.40;;;;;;6113771;28;88072;-66
2022/03/20 14:50:53;;;;;;;7.57;5.40;;;22.20;60.60;;;;;;6131461;28;87897;-66
2022/03/20 14:53:55;;;;;;;6.20;5.60;;;22.20;60.60;;;;;;6137033;28;89285;-66
2022/03/20 14:56:57;;;;;;;5.93;5.28;;;22.10;60.50;;;;;;6134589;28;89202;-66
2022/03/20 15:00:00;;;;;;;6.13;5.53;;;22.20;60.60;;;;;;6123777;28;89410;-66
2022/03/20 15:03:02;;;;;;;6.05;5.45;;;22.20;60.60;;;;;;6137022;28;88993;-66
2022/03/20 15:06:05;;;;;;;6.50;5.90;;;22.20;60.50;;;;;;6134955;28;88358;-67
2022/03/20 15:12:28;;;;;;;6.05;5.53;;;22.20;60.20;;;;;;6133631;28;88026;-66
2022/03/20 15:15:31;;;;;;;6.57;6.03;;;22.10;60.10;;;;;;6121969;28;90181;-66
2022/03/20 15:18:33;;;;;;;6.95;6.10;;;22.10;60.00;;;;;;6123334;28;89492;-66
2022/03/20 15:21:35;;;;;;;6.68;6.07;;;22.20;60.00;;;;;;6134144;28;89033;-66
2022/03/20 15:24:38;;;;;;;6.70;6.10;;;22.20;60.00;;;;;;6133611;28;89024;-66
2022/03/20 15:27:40;;;;;;;6.50;5.93;;;22.20;60.00;;;;;;6127193;28;89048;-67
2022/03/20 15:30:44;;;;;;;6.75;6.05;;;22.10;59.90;;;;;;6131427;28;89033;-66
2022/03/20 15:33:46;;;;;;;6.60;6.00;;;22.20;59.80;;;;;;6133556;28;89009;-67
2022/03/20 15:36:49;;;;;;;6.57;5.97;;;22.10;59.70;;;;;;6124011;28;88358;-67
2022/03/20 15:39:51;;;;;;;7.05;6.45;;;22.20;59.80;;;;;;6127182;28;88946;-67
2022/03/20 15:42:53;;;;;;;7.07;6.20;;;22.10;59.70;;;;;;6134692;28;88314;-67
2022/03/20 15:45:57;;;;;;;6.72;6.13;;;22.20;59.80;;;;;;6132876;28;90024;-66
2022/03/20 15:48:59;;;;;;;6.80;6.10;;;22.20;59.80;;;;;;6121444;28;88319;-67
2022/03/20 15:52:01;;;;;;;7.38;6.68;;;22.20;59.70;;;;;;6121114;28;89425;-66
2022/03/20 15:55:06;;;;;;;7.03;6.43;;;22.20;59.70;;;;;;6128847;28;89077;-67
2022/03/20 15:58:08;;;;;;;7.07;6.43;;;22.20;59.70;;;;;;6126573;28;89033;-67
2022/03/20 16:01:13;;;;;;;7.63;6.93;;;22.10;59.50;;;;;;6121799;28;89052;-67
2022/03/20 16:04:15;;;;;;;7.05;6.40;;;22.10;59.50;;;;;;6135411;28;89161;-67
2022/03/20 16:07:17;;;;;;;7.20;6.57;;;22.10;59.40;;;;;;6124377;28;88353;-67
2022/03/20 16:10:19;;;;;;;7.78;6.65;;;22.10;59.30;;;;;;6121776;28;88989;-67
2022/03/20 16:13:22;;;;;;;7.15;6.55;;;22.10;59.30;;;;;;6133635;28;87964;-67
2022/03/20 16:16:25;;;;;;;7.20;6.60;;;22.10;59.30;;;;;;6134357;28;89967;-66
2022/03/20 16:19:27;;;;;;;7.43;6.72;;;22.10;59.20;;;;;;6134364;28;89111;-67
2022/03/20 16:28:29;;;;;;;7.55;6.95;;;22.10;59.20;;;;;;6134839;28;88213;-66
2022/03/20 16:29:30;;;;;;;7.20;6.60;;;22.20;59.30;;;;;;6135017;28;87314;-66
2022/03/20 16:32:33;;;;;;;7.72;7.05;;;22.10;59.20;;;;;;6120140;28;89085;-66
2022/03/20 16:35:36;;;;;;;7.80;7.10;;;22.10;59.20;;;;;;6123910;28;88289;-66
2022/03/20 16:38:38;;;;;;;7.70;7.10;;;22.10;59.20;;;;;;6128299;28;88885;-66
2022/03/20 16:41:41;;;;;;;7.53;6.82;;;22.10;59.20;;;;;;6115842;28;89272;-67